createdAt,value
2018-11-27T00:00:40.322Z,54.00
2018-11-27T00:01:40.292Z,53.60
2018-11-27T00:02:40.304Z,54.30
2018-11-27T00:03:40.257Z,56.10
2018-11-27T00:04:40.253Z,54.30
2018-11-27T00:05:40.203Z,51.40
2018-11-27T00:06:40.160Z,56.50
2018-11-27T00:07:40.137Z,52.30
2018-11-27T00:08:40.121Z,58.90
2018-11-27T00:09:40.102Z,56.40
2018-11-27T00:10:40.063Z,56.80
2018-11-27T00:11:40.039Z,51.80
2018-11-27T00:12:40.023Z,55.20
2018-11-27T00:13:39.989Z,58.00
2018-11-27T00:14:39.963Z,55.60
2018-11-27T00:15:39.950Z,52.90
2018-11-27T00:16:39.913Z,55.80
2018-11-27T00:17:39.888Z,57.80
2018-11-27T00:18:39.872Z,53.30
2018-11-27T00:19:39.838Z,54.90
2018-11-27T00:20:39.812Z,59.80
2018-11-27T00:21:39.796Z,53.60
2018-11-27T00:22:39.771Z,54.80
2018-11-27T00:23:39.740Z,58.70
2018-11-27T00:24:39.713Z,54.30
2018-11-27T00:25:39.689Z,53.70
2018-11-27T00:26:39.680Z,56.70
2018-11-27T00:27:39.637Z,56.50
2018-11-27T00:28:39.616Z,54.30
2018-11-27T00:29:39.595Z,56.60
2018-11-27T00:30:39.567Z,53.90
2018-11-27T00:31:39.538Z,55.30
2018-11-27T00:32:39.513Z,56.00
2018-11-27T00:33:39.496Z,52.40
2018-11-27T00:34:39.462Z,58.20
2018-11-27T00:35:39.438Z,54.80
2018-11-27T00:36:39.416Z,56.40
2018-11-27T00:37:39.389Z,54.30
2018-11-27T00:38:39.364Z,53.80
2018-11-27T00:39:39.338Z,54.70
2018-11-27T00:40:39.322Z,54.00
2018-11-27T00:41:39.291Z,53.50
2018-11-27T00:42:39.268Z,59.00
2018-11-27T00:43:39.239Z,55.10
2018-11-27T00:44:39.215Z,56.30
2018-11-27T00:45:39.191Z,61.40
2018-11-27T00:46:39.172Z,66.00
2018-11-27T00:47:39.148Z,52.60
2018-11-27T00:48:39.114Z,55.90
2018-11-27T00:49:39.097Z,55.70
2018-11-27T00:50:39.165Z,56.30
2018-11-27T00:51:39.057Z,53.20
2018-11-27T00:52:39.013Z,54.70
2018-11-27T00:53:38.993Z,54.60
2018-11-27T00:54:38.963Z,53.00
2018-11-27T00:55:38.943Z,52.40
2018-11-27T00:56:38.914Z,51.50
2018-11-27T00:57:38.890Z,54.00
2018-11-27T00:58:38.865Z,53.80
2018-11-27T00:59:38.848Z,55.60
2018-11-27T01:00:38.815Z,49.10
2018-11-27T01:01:38.802Z,52.40
2018-11-27T01:02:38.764Z,53.40
2018-11-27T01:03:38.744Z,54.70
2018-11-27T01:04:38.715Z,54.20
2018-11-27T01:05:38.692Z,52.60
2018-11-27T01:06:38.665Z,53.10
2018-11-27T01:07:38.641Z,57.40
2018-11-27T01:08:38.615Z,50.50
2018-11-27T01:09:38.591Z,51.90
2018-11-27T01:10:38.565Z,57.60
2018-11-27T01:11:38.540Z,56.60
2018-11-27T01:12:38.518Z,51.90
2018-11-27T01:13:38.489Z,52.20
2018-11-27T01:14:38.465Z,54.90
2018-11-27T01:15:38.490Z,55.50
2018-11-27T01:16:38.431Z,53.30
2018-11-27T01:17:38.401Z,52.80
2018-11-27T01:18:38.373Z,48.40
2018-11-27T01:19:38.344Z,53.50
2018-11-27T01:20:38.315Z,49.50
2018-11-27T01:21:38.290Z,48.90
2018-11-27T01:22:38.264Z,53.60
2018-11-27T01:23:38.240Z,50.30
2018-11-27T01:24:38.222Z,48.70
2018-11-27T01:25:38.190Z,48.50
2018-11-27T01:26:38.165Z,50.30
2018-11-27T01:27:38.156Z,49.10
2018-11-27T01:28:38.116Z,50.40
2018-11-27T01:29:38.098Z,49.50
2018-11-27T01:30:38.074Z,49.90
2018-11-27T01:31:38.041Z,49.60
2018-11-27T01:32:38.020Z,46.50
2018-11-27T01:33:37.991Z,49.80
2018-11-27T01:34:37.976Z,46.60
2018-11-27T01:35:37.953Z,48.10
2018-11-27T01:36:37.918Z,51.20
2018-11-27T01:37:37.890Z,50.20
2018-11-27T01:38:37.866Z,51.10
2018-11-27T01:39:37.850Z,49.70
2018-11-27T01:40:37.820Z,45.60
2018-11-27T01:41:37.792Z,47.20
2018-11-27T01:42:37.764Z,49.50
2018-11-27T01:43:37.742Z,48.70
2018-11-27T01:44:37.717Z,45.70
2018-11-27T01:45:37.709Z,46.30
2018-11-27T01:46:37.669Z,46.00
2018-11-27T01:47:37.643Z,45.10
2018-11-27T01:48:37.615Z,47.30
2018-11-27T01:49:37.594Z,49.90
2018-11-27T01:50:37.566Z,45.50
2018-11-27T01:51:37.542Z,49.50
2018-11-27T01:52:37.517Z,46.00
2018-11-27T01:53:37.492Z,45.20
2018-11-27T01:54:37.469Z,46.00
2018-11-27T01:55:37.441Z,46.30
2018-11-27T01:56:37.417Z,46.70
2018-11-27T01:57:37.395Z,44.60
2018-11-27T01:58:37.370Z,48.70
2018-11-27T01:59:37.343Z,46.10
2018-11-27T02:00:37.319Z,49.60
2018-11-27T02:01:37.292Z,44.90
2018-11-27T02:02:37.275Z,44.60
2018-11-27T02:03:37.242Z,46.90
2018-11-27T02:04:37.219Z,47.20
2018-11-27T02:05:37.198Z,42.70
2018-11-27T02:06:37.167Z,43.90
2018-11-27T02:07:37.141Z,45.90
2018-11-27T02:08:37.117Z,45.50
2018-11-27T02:09:37.093Z,46.20
2018-11-27T02:10:37.074Z,43.00
2018-11-27T02:11:37.045Z,47.80
2018-11-27T02:12:37.023Z,44.80
2018-11-27T02:13:36.992Z,47.10
2018-11-27T02:14:36.967Z,49.40
2018-11-27T02:15:36.945Z,44.60
2018-11-27T02:16:36.919Z,50.10
2018-11-27T02:17:36.894Z,44.40
2018-11-27T02:18:36.877Z,42.70
2018-11-27T02:19:36.843Z,43.30
2018-11-27T02:20:36.820Z,45.20
2018-11-27T02:21:36.795Z,47.40
2018-11-27T02:22:36.770Z,43.90
2018-11-27T02:23:36.744Z,44.80
2018-11-27T02:24:36.718Z,45.40
2018-11-27T02:25:36.695Z,42.40
2018-11-27T02:26:36.670Z,45.30
2018-11-27T02:27:36.653Z,43.80
2018-11-27T02:28:36.618Z,45.10
2018-11-27T02:29:36.595Z,44.60
2018-11-27T02:30:36.570Z,41.40
2018-11-27T02:31:36.543Z,41.30
2018-11-27T02:32:36.520Z,44.30
2018-11-27T02:33:36.500Z,45.50
2018-11-27T02:34:36.477Z,44.80
2018-11-27T02:35:36.445Z,44.80
2018-11-27T02:36:36.420Z,44.40
2018-11-27T02:37:36.395Z,42.00
2018-11-27T02:38:36.369Z,43.10
2018-11-27T02:39:36.346Z,43.50
2018-11-27T02:40:36.320Z,43.20
2018-11-27T02:41:36.294Z,45.70
2018-11-27T02:42:36.270Z,43.20
2018-11-27T02:43:36.246Z,44.10
2018-11-27T02:44:36.221Z,43.20
2018-11-27T02:45:36.197Z,44.30
2018-11-27T02:46:36.172Z,43.40
2018-11-27T02:47:36.146Z,40.10
2018-11-27T02:48:36.120Z,43.50
2018-11-27T02:49:36.102Z,42.30
2018-11-27T02:50:36.073Z,40.80
2018-11-27T02:51:36.045Z,40.00
2018-11-27T02:52:36.031Z,44.80
2018-11-27T02:53:36.004Z,44.10
2018-11-27T02:54:35.970Z,42.20
2018-11-27T02:55:35.947Z,42.60
2018-11-27T02:56:35.921Z,39.70
2018-11-27T02:57:35.897Z,44.40
2018-11-27T02:58:35.870Z,39.80
2018-11-27T02:59:35.846Z,45.50
2018-11-27T03:00:35.820Z,47.70
2018-11-27T03:01:35.797Z,44.00
2018-11-27T03:02:35.770Z,38.90
2018-11-27T03:03:35.746Z,41.90
2018-11-27T03:04:35.723Z,41.70
2018-11-27T03:05:35.697Z,36.70
2018-11-27T03:06:35.671Z,41.90
2018-11-27T03:07:35.648Z,43.40
2018-11-27T03:08:35.623Z,45.10
2018-11-27T03:09:35.597Z,42.60
2018-11-27T03:10:35.584Z,39.40
2018-11-27T03:11:35.549Z,41.40
2018-11-27T03:12:35.522Z,38.10
2018-11-27T03:13:35.501Z,40.40
2018-11-27T03:14:35.474Z,42.30
2018-11-27T03:15:35.447Z,38.20
2018-11-27T03:16:35.432Z,41.00
2018-11-27T03:17:35.398Z,39.70
2018-11-27T03:18:35.372Z,39.20
2018-11-27T03:19:35.355Z,40.60
2018-11-27T03:20:35.323Z,43.70
2018-11-27T03:21:35.296Z,42.70
2018-11-27T03:22:35.271Z,36.60
2018-11-27T03:23:35.247Z,40.70
2018-11-27T03:24:35.225Z,39.70
2018-11-27T03:25:35.198Z,40.90
2018-11-27T03:26:35.173Z,38.30
2018-11-27T03:27:35.147Z,42.00
2018-11-27T03:28:35.224Z,41.40
2018-11-27T03:29:35.098Z,39.30
2018-11-27T03:30:35.075Z,44.10
2018-11-27T03:31:35.048Z,40.50
2018-11-27T03:32:35.023Z,40.40
2018-11-27T03:33:34.998Z,42.40
2018-11-27T03:34:34.972Z,40.20
2018-11-27T03:35:34.947Z,40.10
2018-11-27T03:36:34.924Z,40.70
2018-11-27T03:37:34.899Z,41.80
2018-11-27T03:38:34.871Z,37.80
2018-11-27T03:39:34.849Z,41.30
2018-11-27T03:40:34.822Z,37.20
2018-11-27T03:41:34.798Z,40.50
2018-11-27T03:42:34.772Z,40.10
2018-11-27T03:43:34.746Z,38.70
2018-11-27T03:44:34.722Z,39.00
2018-11-27T03:45:34.697Z,38.70
2018-11-27T03:46:34.671Z,39.40
2018-11-27T03:47:34.646Z,38.90
2018-11-27T03:48:34.621Z,40.20
2018-11-27T03:49:34.596Z,39.20
2018-11-27T03:50:34.571Z,39.60
2018-11-27T03:51:34.546Z,39.50
2018-11-27T03:52:34.527Z,37.90
2018-11-27T03:53:34.498Z,38.70
2018-11-27T03:54:34.473Z,43.90
2018-11-27T03:55:34.459Z,43.60
2018-11-27T03:56:34.421Z,42.10
2018-11-27T03:57:34.395Z,43.40
2018-11-27T03:58:34.370Z,44.90
2018-11-27T03:59:34.357Z,41.50
2018-11-27T04:00:34.323Z,42.20
2018-11-27T04:01:34.297Z,43.40
2018-11-27T04:02:34.271Z,41.80
2018-11-27T04:03:34.247Z,42.00
2018-11-27T04:04:34.277Z,45.00
2018-11-27T04:05:34.197Z,42.50
2018-11-27T04:06:34.171Z,43.10
2018-11-27T04:07:34.144Z,40.90
2018-11-27T04:08:34.127Z,43.00
2018-11-27T04:09:34.100Z,40.30
2018-11-27T04:10:34.072Z,40.90
2018-11-27T04:11:34.047Z,41.20
2018-11-27T04:12:34.020Z,39.90
2018-11-27T04:13:34.021Z,41.00
2018-11-27T04:14:33.978Z,38.00
2018-11-27T04:15:33.946Z,41.40
2018-11-27T04:16:33.920Z,43.10
2018-11-27T04:17:33.897Z,40.80
2018-11-27T04:18:33.875Z,41.40
2018-11-27T04:19:33.862Z,37.70
2018-11-27T04:20:33.824Z,39.50
2018-11-27T04:21:33.796Z,37.80
2018-11-27T04:22:33.774Z,39.30
2018-11-27T04:23:33.747Z,41.60
2018-11-27T04:24:33.725Z,41.20
2018-11-27T04:25:33.698Z,39.10
2018-11-27T04:26:33.670Z,43.70
2018-11-27T04:27:33.645Z,39.70
2018-11-27T04:28:33.620Z,39.40
2018-11-27T04:29:33.599Z,41.50
2018-11-27T04:30:33.571Z,39.80
2018-11-27T04:31:33.545Z,41.50
2018-11-27T04:32:33.521Z,36.80
2018-11-27T04:33:33.498Z,38.90
2018-11-27T04:34:33.472Z,40.70
2018-11-27T04:35:33.446Z,41.60
2018-11-27T04:36:33.421Z,41.30
2018-11-27T04:37:33.396Z,39.50
2018-11-27T04:38:33.373Z,40.30
2018-11-27T04:39:33.348Z,37.90
2018-11-27T04:40:33.322Z,37.90
2018-11-27T04:41:33.305Z,41.40
2018-11-27T04:42:33.272Z,40.70
2018-11-27T04:43:33.247Z,42.20
2018-11-27T04:44:33.227Z,40.10
2018-11-27T04:45:33.198Z,41.90
2018-11-27T04:46:33.272Z,43.30
2018-11-27T04:47:33.147Z,40.50
2018-11-27T04:48:33.121Z,41.60
2018-11-27T04:49:33.099Z,39.60
2018-11-27T04:50:33.079Z,42.50
2018-11-27T04:51:33.048Z,41.10
2018-11-27T04:52:33.026Z,42.90
2018-11-27T04:53:32.997Z,40.20
2018-11-27T04:54:32.971Z,40.00
2018-11-27T04:55:32.947Z,38.50
2018-11-27T04:56:32.925Z,39.40
2018-11-27T04:57:32.897Z,42.60
2018-11-27T04:58:32.882Z,45.80
2018-11-27T04:59:32.848Z,39.90
2018-11-27T05:00:32.823Z,41.40
2018-11-27T05:01:32.796Z,41.10
2018-11-27T05:02:32.773Z,39.60
2018-11-27T05:03:32.748Z,41.80
2018-11-27T05:04:32.721Z,39.30
2018-11-27T05:05:32.712Z,41.90
2018-11-27T05:06:32.672Z,40.10
2018-11-27T05:07:32.648Z,39.50
2018-11-27T05:08:32.624Z,39.20
2018-11-27T05:09:32.612Z,39.00
2018-11-27T05:10:32.571Z,42.00
2018-11-27T05:11:32.550Z,38.10
2018-11-27T05:12:32.522Z,39.80
2018-11-27T05:13:32.500Z,41.40
2018-11-27T05:14:32.479Z,42.90
2018-11-27T05:15:32.447Z,42.30
2018-11-27T05:16:32.422Z,40.60
2018-11-27T05:17:32.397Z,39.00
2018-11-27T05:18:32.372Z,37.00
2018-11-27T05:19:32.348Z,38.50
2018-11-27T05:20:32.365Z,41.80
2018-11-27T05:21:32.303Z,39.60
2018-11-27T05:22:32.273Z,37.50
2018-11-27T05:23:32.249Z,41.10
2018-11-27T05:24:32.224Z,38.60
2018-11-27T05:25:32.200Z,39.40
2018-11-27T05:26:32.172Z,41.70
2018-11-27T05:27:32.148Z,39.80
2018-11-27T05:28:32.124Z,39.70
2018-11-27T05:29:32.099Z,37.20
2018-11-27T05:30:32.073Z,39.20
2018-11-27T05:31:32.051Z,39.50
2018-11-27T05:32:32.024Z,37.90
2018-11-27T05:33:32.008Z,37.20
2018-11-27T05:34:31.974Z,38.50
2018-11-27T05:35:31.950Z,39.20
2018-11-27T05:36:31.924Z,40.40
2018-11-27T05:37:31.906Z,39.00
2018-11-27T05:38:31.942Z,36.00
2018-11-27T05:39:31.865Z,38.30
2018-11-27T05:40:31.826Z,37.20
2018-11-27T05:41:31.807Z,42.10
2018-11-27T05:42:31.774Z,38.90
2018-11-27T05:43:31.758Z,41.60
2018-11-27T05:44:31.724Z,37.50
2018-11-27T05:45:31.702Z,40.40
2018-11-27T05:46:31.675Z,38.70
2018-11-27T05:47:31.652Z,39.90
2018-11-27T05:48:31.628Z,40.00
2018-11-27T05:49:31.601Z,37.30
2018-11-27T05:50:31.576Z,37.90
2018-11-27T05:51:31.549Z,37.60
2018-11-27T05:52:31.524Z,34.50
2018-11-27T05:53:31.501Z,36.80
2018-11-27T05:54:31.476Z,41.70
2018-11-27T05:55:31.459Z,38.90
2018-11-27T05:56:31.425Z,40.20
2018-11-27T05:57:31.400Z,36.40
2018-11-27T05:58:31.384Z,39.30
2018-11-27T05:59:31.355Z,36.60
2018-11-27T06:00:31.326Z,35.80
2018-11-27T06:01:31.300Z,37.00
2018-11-27T06:02:31.284Z,37.10
2018-11-27T06:03:31.253Z,35.20
2018-11-27T06:04:31.234Z,37.50
2018-11-27T06:05:31.207Z,34.50
2018-11-27T06:06:31.177Z,38.00
2018-11-27T06:07:31.152Z,38.80
2018-11-27T06:08:31.129Z,38.70
2018-11-27T06:09:31.103Z,34.20
2018-11-27T06:10:31.091Z,37.10
2018-11-27T06:11:31.057Z,36.20
2018-11-27T06:12:31.025Z,34.50
2018-11-27T06:13:31.002Z,35.50
2018-11-27T06:14:30.977Z,33.40
2018-11-27T06:15:30.959Z,34.60
2018-11-27T06:16:30.930Z,34.20
2018-11-27T06:17:30.909Z,32.30
2018-11-27T06:18:30.879Z,33.30
2018-11-27T06:19:30.856Z,34.00
2018-11-27T06:20:30.827Z,39.20
2018-11-27T06:21:30.805Z,34.80
2018-11-27T06:22:30.786Z,36.30
2018-11-27T06:23:30.756Z,35.40
2018-11-27T06:24:30.731Z,33.60
2018-11-27T06:25:30.701Z,37.90
2018-11-27T06:26:30.678Z,35.00
2018-11-27T06:27:30.650Z,33.80
2018-11-27T06:28:30.629Z,41.10
2018-11-27T06:29:30.610Z,36.30
2018-11-27T06:30:30.576Z,36.80
2018-11-27T06:31:30.558Z,38.40
2018-11-27T06:32:30.526Z,36.20
2018-11-27T06:33:30.499Z,38.40
2018-11-27T06:34:30.478Z,34.90
2018-11-27T06:35:30.448Z,35.10
2018-11-27T06:36:30.426Z,33.50
2018-11-27T06:37:30.500Z,35.40
2018-11-27T06:38:30.375Z,32.70
2018-11-27T06:39:30.350Z,35.90
2018-11-27T06:40:30.326Z,33.80
2018-11-27T06:41:30.301Z,35.40
2018-11-27T06:42:30.273Z,35.20
2018-11-27T06:43:30.252Z,33.40
2018-11-27T06:44:30.224Z,33.90
2018-11-27T06:45:30.199Z,34.20
2018-11-27T06:46:30.173Z,72.50
2018-11-27T06:47:30.150Z,39.30
2018-11-27T06:48:30.125Z,34.70
2018-11-27T06:49:30.101Z,33.30
2018-11-27T06:50:30.079Z,36.50
2018-11-27T06:51:30.057Z,35.90
2018-11-27T06:52:30.023Z,33.90
2018-11-27T06:53:29.999Z,33.20
2018-11-27T06:54:29.981Z,36.80
2018-11-27T06:55:29.947Z,32.00
2018-11-27T06:56:29.924Z,34.00
2018-11-27T06:57:29.899Z,33.80
2018-11-27T06:58:29.871Z,35.40
2018-11-27T06:59:29.847Z,32.30
2018-11-27T07:00:29.822Z,31.50
2018-11-27T07:01:29.807Z,34.30
2018-11-27T07:02:29.773Z,32.30
2018-11-27T07:03:29.746Z,34.40
2018-11-27T07:04:29.722Z,32.50
2018-11-27T07:05:29.724Z,36.60
2018-11-27T07:06:29.677Z,35.60
2018-11-27T07:07:29.649Z,37.00
2018-11-27T07:08:29.635Z,35.30
2018-11-27T07:09:29.605Z,35.30
2018-11-27T07:10:29.571Z,35.50
2018-11-27T07:11:29.547Z,34.60
2018-11-27T07:12:29.540Z,33.00
2018-11-27T07:13:29.502Z,35.30
2018-11-27T07:14:29.473Z,35.00
2018-11-27T07:15:29.455Z,38.30
2018-11-27T07:16:29.431Z,36.70
2018-11-27T07:17:29.397Z,36.90
2018-11-27T07:18:29.382Z,37.90
2018-11-27T07:19:29.347Z,39.70
2018-11-27T07:20:29.322Z,35.90
2018-11-27T07:21:29.310Z,39.10
2018-11-27T07:22:29.271Z,34.70
2018-11-27T07:23:29.247Z,36.00
2018-11-27T07:24:29.233Z,42.10
2018-11-27T07:25:29.198Z,39.90
2018-11-27T07:26:29.176Z,41.50
2018-11-27T07:27:29.148Z,38.10
2018-11-27T07:28:29.124Z,32.70
2018-11-27T07:29:29.099Z,37.30
2018-11-27T07:30:29.086Z,36.60
2018-11-27T07:31:29.047Z,35.30
2018-11-27T07:32:29.023Z,36.40
2018-11-27T07:33:29.007Z,36.30
2018-11-27T07:34:28.989Z,37.60
2018-11-27T07:35:28.948Z,36.50
2018-11-27T07:36:28.933Z,38.20
2018-11-27T07:37:28.924Z,37.60
2018-11-27T07:38:28.974Z,36.30
2018-11-27T07:39:28.850Z,37.90
2018-11-27T07:40:28.826Z,34.50
2018-11-27T07:41:28.807Z,39.10
2018-11-27T07:42:28.774Z,37.30
2018-11-27T07:43:28.750Z,36.40
2018-11-27T07:44:28.724Z,39.60
2018-11-27T07:45:28.708Z,38.20
2018-11-27T07:46:28.677Z,36.20
2018-11-27T07:47:28.650Z,37.50
2018-11-27T07:48:28.627Z,34.40
2018-11-27T07:49:28.600Z,35.80
2018-11-27T07:50:28.583Z,32.70
2018-11-27T07:51:28.552Z,33.30
2018-11-27T07:52:28.529Z,36.40
2018-11-27T07:53:28.502Z,36.90
2018-11-27T07:54:28.484Z,37.20
2018-11-27T07:55:28.451Z,33.30
2018-11-27T07:56:28.427Z,33.10
2018-11-27T07:57:28.412Z,36.80
2018-11-27T07:58:28.381Z,40.10
2018-11-27T07:59:28.355Z,40.00
2018-11-27T08:00:28.327Z,35.40
2018-11-27T08:01:28.302Z,38.60
2018-11-27T08:02:28.279Z,38.00
2018-11-27T08:03:28.464Z,36.30
2018-11-27T08:04:28.228Z,37.80
2018-11-27T08:05:28.205Z,35.50
2018-11-27T08:06:28.180Z,38.20
2018-11-27T08:07:28.154Z,36.80
2018-11-27T08:08:28.130Z,37.60
2018-11-27T08:09:28.112Z,39.00
2018-11-27T08:10:28.086Z,37.50
2018-11-27T08:11:28.069Z,33.90
2018-11-27T08:12:28.040Z,32.60
2018-11-27T08:13:28.008Z,35.50
2018-11-27T08:14:27.981Z,34.00
2018-11-27T08:15:27.956Z,35.70
2018-11-27T08:16:27.950Z,36.80
2018-11-27T08:17:27.913Z,34.00
2018-11-27T08:18:27.893Z,35.90
2018-11-27T08:19:27.859Z,33.90
2018-11-27T08:20:27.838Z,38.70
2018-11-27T08:21:27.809Z,38.70
2018-11-27T08:22:27.785Z,43.80
2018-11-27T08:23:27.772Z,40.20
2018-11-27T08:24:27.745Z,41.00
2018-11-27T08:25:27.713Z,47.30
2018-11-27T08:26:27.685Z,45.60
2018-11-27T08:27:27.670Z,39.20
2018-11-27T08:28:27.637Z,41.00
2018-11-27T08:29:27.616Z,42.90
2018-11-27T08:30:27.590Z,39.00
2018-11-27T08:31:27.561Z,38.80
2018-11-27T08:32:27.538Z,41.30
2018-11-27T08:33:27.522Z,41.20
2018-11-27T08:34:27.497Z,43.90
2018-11-27T08:35:27.464Z,40.00
2018-11-27T08:36:27.440Z,40.20
2018-11-27T08:37:27.415Z,38.40
2018-11-27T08:38:27.390Z,37.80
2018-11-27T08:39:27.373Z,37.70
2018-11-27T08:40:27.342Z,38.80
2018-11-27T08:41:27.326Z,43.40
2018-11-27T08:42:27.300Z,39.50
2018-11-27T08:43:27.274Z,40.20
2018-11-27T08:44:27.244Z,41.80
2018-11-27T08:45:27.227Z,40.20
2018-11-27T08:46:27.195Z,37.40
2018-11-27T08:47:27.169Z,38.60
2018-11-27T08:48:27.156Z,40.30
2018-11-27T08:49:27.126Z,38.40
2018-11-27T08:50:27.096Z,35.20
2018-11-27T08:51:27.071Z,41.10
2018-11-27T08:52:27.064Z,33.60
2018-11-27T08:53:27.023Z,37.30
2018-11-27T08:54:26.998Z,39.40
2018-11-27T08:55:26.995Z,38.00
2018-11-27T08:56:26.955Z,35.40
2018-11-27T08:57:26.924Z,33.60
2018-11-27T08:58:26.900Z,33.10
2018-11-27T08:59:26.876Z,36.20
2018-11-27T09:00:26.850Z,35.70
2018-11-27T09:01:26.826Z,32.80
2018-11-27T09:02:26.802Z,36.40
2018-11-27T09:03:26.776Z,33.20
2018-11-27T09:04:26.754Z,35.40
2018-11-27T09:05:26.735Z,36.60
2018-11-27T09:06:26.703Z,34.30
2018-11-27T09:07:26.720Z,36.70
2018-11-27T09:08:26.659Z,33.90
2018-11-27T09:09:26.630Z,34.70
2018-11-27T09:10:26.609Z,35.70
2018-11-27T09:11:26.628Z,32.40
2018-11-27T09:12:26.558Z,33.50
2018-11-27T09:13:26.533Z,32.20
2018-11-27T09:14:26.515Z,34.00
2018-11-27T09:15:26.489Z,33.00
2018-11-27T09:16:26.459Z,33.80
2018-11-27T09:17:26.443Z,33.80
2018-11-27T09:18:26.410Z,35.30
2018-11-27T09:19:26.393Z,35.60
2018-11-27T09:20:26.375Z,36.50
2018-11-27T09:21:26.337Z,35.60
2018-11-27T09:22:26.311Z,36.20
2018-11-27T09:23:26.287Z,35.60
2018-11-27T09:24:26.283Z,38.00
2018-11-27T09:25:26.239Z,36.30
2018-11-27T09:26:26.220Z,36.00
2018-11-27T09:27:26.190Z,38.70
2018-11-27T09:28:26.173Z,34.20
2018-11-27T09:29:26.140Z,36.40
2018-11-27T09:30:26.126Z,34.20
2018-11-27T09:31:26.090Z,34.00
2018-11-27T09:32:26.067Z,36.60
2018-11-27T09:33:26.044Z,35.40
2018-11-27T09:34:26.015Z,32.90
2018-11-27T09:35:25.994Z,35.80
2018-11-27T09:36:25.969Z,32.10
2018-11-27T09:37:25.952Z,36.70
2018-11-27T09:38:25.930Z,36.30
2018-11-27T09:39:25.895Z,36.10
2018-11-27T09:40:25.871Z,33.30
2018-11-27T09:41:25.847Z,34.00
2018-11-27T09:42:25.829Z,36.20
2018-11-27T09:43:25.794Z,37.10
2018-11-27T09:44:25.778Z,37.00
2018-11-27T09:45:25.753Z,38.40
2018-11-27T09:46:25.726Z,35.10
2018-11-27T09:47:25.699Z,35.10
2018-11-27T09:48:25.678Z,33.10
2018-11-27T09:49:25.659Z,33.70
2018-11-27T09:50:25.625Z,36.20
2018-11-27T09:51:25.599Z,35.90
2018-11-27T09:52:25.577Z,33.70
2018-11-27T09:53:25.558Z,37.50
2018-11-27T09:54:25.534Z,35.30
2018-11-27T09:55:25.510Z,32.80
2018-11-27T09:56:25.478Z,36.10
2018-11-27T09:57:25.454Z,31.50
2018-11-27T09:58:25.428Z,33.10
2018-11-27T09:59:25.408Z,30.50
2018-11-27T10:00:25.384Z,34.00
2018-11-27T10:01:25.357Z,36.40
2018-11-27T10:02:25.331Z,33.50
2018-11-27T10:03:25.361Z,37.20
2018-11-27T10:04:25.291Z,32.90
2018-11-27T10:05:25.258Z,34.80
2018-11-27T10:06:25.233Z,35.70
2018-11-27T10:07:25.210Z,31.60
2018-11-27T10:08:25.184Z,33.80
2018-11-27T10:09:25.160Z,33.80
2018-11-27T10:10:25.138Z,35.30
2018-11-27T10:11:25.117Z,31.90
2018-11-27T10:12:25.089Z,31.40
2018-11-27T10:13:25.066Z,28.20
2018-11-27T10:14:25.047Z,28.80
2018-11-27T10:15:25.025Z,32.60
2018-11-27T10:16:24.994Z,35.00
2018-11-27T10:17:24.968Z,32.50
2018-11-27T10:18:24.942Z,35.00
2018-11-27T10:19:27.002Z,35.00
2018-11-27T10:20:24.902Z,32.30
2018-11-27T10:21:24.876Z,31.50
2018-11-27T10:22:24.843Z,30.40
2018-11-27T10:23:24.829Z,32.20
2018-11-27T10:24:24.796Z,34.20
2018-11-27T10:25:24.771Z,32.40
2018-11-27T10:26:24.792Z,35.30
2018-11-27T10:27:24.728Z,30.40
2018-11-27T10:28:24.696Z,31.50
2018-11-27T10:29:24.689Z,33.30
2018-11-27T10:30:24.656Z,31.80
2018-11-27T10:31:24.672Z,31.80
2018-11-27T10:32:24.595Z,33.20
2018-11-27T10:33:24.579Z,33.70
2018-11-27T10:34:24.563Z,34.30
2018-11-27T10:35:24.523Z,32.00
2018-11-27T10:36:24.500Z,32.70
2018-11-27T10:37:24.473Z,30.80
2018-11-27T10:38:24.447Z,33.80
2018-11-27T10:39:24.429Z,34.00
2018-11-27T10:40:24.414Z,33.80
2018-11-27T10:41:24.379Z,31.40
2018-11-27T10:42:29.947Z,33.90
2018-11-27T10:43:24.330Z,32.40
2018-11-27T10:44:24.308Z,32.40
2018-11-27T10:45:24.275Z,34.60
2018-11-27T10:46:24.249Z,32.60
2018-11-27T10:47:24.223Z,39.20
2018-11-27T10:48:24.201Z,35.40
2018-11-27T10:49:24.174Z,36.80
2018-11-27T10:50:24.256Z,35.50
2018-11-27T10:51:24.126Z,36.10
2018-11-27T10:52:24.109Z,34.70
2018-11-27T10:53:24.080Z,33.70
2018-11-27T10:54:24.051Z,35.70
2018-11-27T10:55:24.034Z,33.40
2018-11-27T10:56:24.008Z,32.30
2018-11-27T10:57:23.976Z,33.60
2018-11-27T10:58:23.954Z,32.40
2018-11-27T10:59:23.928Z,32.20
2018-11-27T11:00:23.903Z,33.80
2018-11-27T11:01:23.880Z,33.30
2018-11-27T11:02:23.855Z,34.90
2018-11-27T11:03:23.831Z,34.20
2018-11-27T11:04:23.812Z,33.40
2018-11-27T11:05:23.784Z,35.40
2018-11-27T11:06:23.757Z,33.90
2018-11-27T11:07:23.746Z,32.90
2018-11-27T11:08:23.719Z,35.20
2018-11-27T11:09:23.683Z,35.40
2018-11-27T11:10:23.659Z,34.00
2018-11-27T11:11:23.632Z,31.30
2018-11-27T11:12:23.609Z,33.40
2018-11-27T11:13:23.584Z,32.60
2018-11-27T11:14:23.555Z,33.40
2018-11-27T11:15:23.533Z,36.00
2018-11-27T11:16:23.507Z,33.20
2018-11-27T11:17:23.487Z,33.50
2018-11-27T11:18:23.458Z,32.60
2018-11-27T11:19:23.439Z,36.70
2018-11-27T11:20:23.408Z,34.00
2018-11-27T11:21:23.384Z,32.60
2018-11-27T11:22:23.357Z,35.70
2018-11-27T11:23:23.334Z,32.40
2018-11-27T11:24:23.318Z,32.30
2018-11-27T11:25:23.284Z,30.10
2018-11-27T11:26:23.259Z,31.80
2018-11-27T11:27:23.246Z,32.80
2018-11-27T11:28:23.210Z,35.40
2018-11-27T11:29:23.187Z,32.10
2018-11-27T11:30:23.162Z,32.50
2018-11-27T11:31:23.136Z,32.80
2018-11-27T11:32:23.118Z,30.50
2018-11-27T11:33:23.086Z,30.30
2018-11-27T11:34:23.068Z,32.40
2018-11-27T11:35:23.049Z,33.00
2018-11-27T11:36:23.021Z,33.30
2018-11-27T11:37:22.987Z,32.70
2018-11-27T11:38:22.964Z,32.50
2018-11-27T11:39:22.938Z,31.40
2018-11-27T11:40:22.916Z,31.60
2018-11-27T11:41:22.893Z,30.60
2018-11-27T11:42:22.865Z,34.50
2018-11-27T11:43:22.841Z,32.20
2018-11-27T11:44:22.825Z,34.80
2018-11-27T11:45:22.809Z,31.40
2018-11-27T11:46:22.769Z,32.70
2018-11-27T11:47:22.753Z,31.50
2018-11-27T11:48:22.719Z,29.80
2018-11-27T11:49:22.697Z,30.30
2018-11-27T11:50:22.672Z,26.80
2018-11-27T11:51:22.648Z,28.60
2018-11-27T11:52:22.632Z,26.80
2018-11-27T11:53:22.597Z,27.60
2018-11-27T11:54:22.578Z,28.60
2018-11-27T11:55:22.558Z,29.60
2018-11-27T11:56:22.526Z,30.60
2018-11-27T11:57:22.517Z,29.60
2018-11-27T11:58:22.493Z,28.90
2018-11-27T11:59:22.462Z,28.10
2018-11-27T12:00:22.430Z,27.90
2018-11-27T12:01:22.420Z,29.80
2018-11-27T12:02:22.380Z,29.70
2018-11-27T12:03:22.356Z,28.40
2018-11-27T12:04:22.340Z,29.20
2018-11-27T12:05:25.011Z,29.20
2018-11-27T12:06:22.287Z,27.20
2018-11-27T12:07:22.261Z,31.00
2018-11-27T12:08:22.236Z,29.40
2018-11-27T12:09:22.232Z,29.90
2018-11-27T12:10:22.188Z,30.50
2018-11-27T12:11:22.162Z,28.90
2018-11-27T12:12:22.193Z,28.60
2018-11-27T12:13:22.125Z,31.20
2018-11-27T12:14:22.117Z,29.00
2018-11-27T12:15:22.067Z,30.10
2018-11-27T12:16:22.053Z,30.60
2018-11-27T12:17:22.030Z,27.10
2018-11-27T12:18:22.000Z,28.80
2018-11-27T12:19:21.978Z,29.20
2018-11-27T12:20:21.950Z,31.00
2018-11-27T12:21:21.924Z,28.00
2018-11-27T12:22:21.902Z,30.50
2018-11-27T12:23:21.882Z,29.70
2018-11-27T12:24:21.857Z,30.70
2018-11-27T12:25:24.210Z,30.00
2018-11-27T12:26:21.810Z,28.60
2018-11-27T12:27:21.781Z,30.80
2018-11-27T12:28:21.755Z,29.50
2018-11-27T12:29:21.732Z,30.60
2018-11-27T12:30:21.709Z,29.30
2018-11-27T12:31:21.683Z,27.90
2018-11-27T12:32:21.661Z,26.40
2018-11-27T12:33:21.650Z,30.50
2018-11-27T12:34:21.619Z,31.60
2018-11-27T12:35:21.587Z,30.30
2018-11-27T12:36:21.565Z,30.40
2018-11-27T12:37:21.542Z,30.10
2018-11-27T12:38:21.517Z,29.70
2018-11-27T12:39:21.491Z,28.40
2018-11-27T12:40:21.481Z,27.50
2018-11-27T12:41:21.547Z,28.00
2018-11-27T12:42:21.421Z,29.30
2018-11-27T12:43:21.403Z,31.50
2018-11-27T12:44:21.370Z,29.70
2018-11-27T12:45:21.347Z,26.80
2018-11-27T12:46:21.327Z,26.70
2018-11-27T12:47:21.304Z,30.70
2018-11-27T12:48:21.273Z,25.80
2018-11-27T12:49:21.256Z,28.20
2018-11-27T12:50:21.224Z,28.60
2018-11-27T12:51:21.200Z,26.30
2018-11-27T12:52:21.174Z,28.00